Time;durP1;ratioP1;P1;durP2;ratioP2;P2;SDS_P1;SDS_P2;PMS_P1;PMS_P2;Temp;Humidity;BMP_temperature;BMP_pressure;BME280_temperature;BME280_humidity;BME280_pressure;Samples;Min_cycle;Max_cycle;Signal;HPM_P1;HPM_P2
2024/01/11 00:01:59;;;;;;;;;;;;;;;-6.30;72.85;103147.09;5012365;28;20391;-70
2024/01/11 00:04:24;;;;;;;;;;;;;;;-6.28;73.12;103143.06;4993605;28;20008;-71
2024/01/11 00:06:50;;;;;;;;;;;;;;;-6.25;73.78;103138.97;4993214;28;20293;-71
2024/01/11 00:09:16;;;;;;;;;;;;;;;-6.27;74.63;103142.28;4992290;28;19921;-71
2024/01/11 00:11:41;;;;;;;;;;;;;;;-6.25;72.95;103141.53;5012517;28;20420;-71
2024/01/11 00:14:06;;;;;;;;;;;;;;;-6.24;73.32;103143.34;4994272;28;20297;-71
2024/01/11 00:16:32;;;;;;;;;;;;;;;-6.24;73.87;103145.91;4986036;28;19917;-70
2024/01/11 00:18:57;;;;;;;;;;;;;;;-6.25;72.93;103146.63;4980153;28;20358;-71
2024/01/11 00:21:22;;;;;;;;;;;;;;;-6.26;73.35;103140.66;5030544;28;20557;-70
2024/01/11 00:23:48;;;;;;;;;;;;;;;-6.23;72.27;103140.00;4992940;28;19921;-71
2024/01/11 00:26:14;;;;;;;;;;;;;;;-6.24;73.81;103136.56;4988328;28;20680;-71
2024/01/11 00:28:39;;;;;;;;;;;;;;;-6.21;73.07;103141.06;4995264;28;19921;-71
2024/01/11 00:31:04;;;;;;;;;;;;;;;-6.21;72.76;103141.06;5012219;28;19922;-70
2024/01/11 00:33:30;;;;;;;;;;;;;;;-6.20;74.29;103145.44;5030774;28;20008;-71
2024/01/11 00:35:55;;;;;;;;;;;;;;;-6.22;73.11;103136.72;5017737;28;19925;-71
2024/01/11 00:38:20;;;;;;;;;;;;;;;-6.24;73.65;103144.22;5015453;28;19921;-71
2024/01/11 00:40:46;;;;;;;;;;;;;;;-6.25;73.50;103138.97;4995675;28;19931;-70
2024/01/11 00:43:11;;;;;;;;;;;;;;;-6.30;73.77;103142.00;5000031;28;19932;-71
2024/01/11 00:45:37;;;;;;;;;;;;;;;-6.30;73.67;103142.00;5013856;28;20250;-70
2024/01/11 00:48:03;;;;;;;;;;;;;;;-6.35;74.08;103140.69;5016542;28;19995;-71
2024/01/11 00:50:28;;;;;;;;;;;;;;;-6.35;73.95;103150.91;4999191;28;19936;-70
2024/01/11 00:52:53;;;;;;;;;;;;;;;-6.38;73.66;103150.56;4983699;28;20312;-70
2024/01/11 00:55:19;;;;;;;;;;;;;;;-6.38;74.46;103155.69;5008949;28;19916;-70
2024/01/11 00:57:44;;;;;;;;;;;;;;;-6.39;74.19;103141.16;5017060;28;19928;-70
2024/01/11 01:00:13;;;;;;;;;;;;;;;-6.39;73.81;103137.69;4995749;28;19925;-71
2024/01/11 01:02:39;;;;;;;;;;;;;;;-6.38;74.85;103139.47;5016272;28;20371;-70
2024/01/11 01:05:04;;;;;;;;;;;;;;;-6.40;74.77;103131.69;5015156;28;19914;-70
2024/01/11 01:07:30;;;;;;;;;;;;;;;-6.40;75.25;103130.81;5013918;28;19960;-70
2024/01/11 01:09:55;;;;;;;;;;;;;;;-6.39;74.37;103142.78;4994383;28;19932;-70
2024/01/11 01:12:21;;;;;;;;;;;;;;;-6.40;75.14;103147.00;5018740;28;19939;-70
2024/01/11 01:14:46;;;;;;;;;;;;;;;-6.45;74.58;103148.19;5053073;28;19921;-70
2024/01/11 01:17:12;;;;;;;;;;;;;;;-6.53;74.28;103152.59;5024601;28;19925;-70
2024/01/11 01:19:37;;;;;;;;;;;;;;;-6.59;74.51;103148.56;5032095;28;19932;-70
2024/01/11 01:22:03;;;;;;;;;;;;;;;-6.64;75.34;103156.69;5044332;28;19917;-70
2024/01/11 01:24:28;;;;;;;;;;;;;;;-6.64;75.66;103158.31;5052210;28;19956;-70
2024/01/11 01:26:53;;;;;;;;;;;;;;;-6.64;75.72;103160.88;5030532;28;20292;-70
2024/01/11 01:29:19;;;;;;;;;;;;;;;-6.66;75.55;103155.63;5022052;28;20014;-70
2024/01/11 01:31:44;;;;;;;;;;;;;;;-6.66;75.89;103162.38;5043386;28;19916;-70
2024/01/11 01:34:10;;;;;;;;;;;;;;;-6.66;75.62;103170.94;5024298;28;20034;-70
2024/01/11 01:36:35;;;;;;;;;;;;;;;-6.71;76.50;103169.59;5041656;28;19935;-70
2024/01/11 01:39:00;;;;;;;;;;;;;;;-6.71;76.06;103173.78;5033463;28;19933;-70
2024/01/11 01:41:25;;;;;;;;;;;;;;;-6.73;75.30;103172.75;5026534;28;20573;-70
2024/01/11 01:43:51;;;;;;;;;;;;;;;-6.73;75.96;103171.09;5052790;28;19923;-70
2024/01/11 01:46:22;;;;;;;;;;;;;;;-6.76;75.58;103167.38;5044118;28;19951;-70
2024/01/11 01:48:50;;;;;;;;;;;;;;;-6.79;75.86;103184.16;5051717;28;20353;-70
2024/01/11 01:51:16;;;;;;;;;;;;;;;-6.81;75.71;103185.66;5031578;28;19929;-70
2024/01/11 01:53:41;;;;;;;;;;;;;;;-6.84;76.14;103187.94;5026190;28;19921;-70
2024/01/11 01:56:08;;;;;;;;;;;;;;;-6.91;75.76;103190.63;5024754;28;19924;-70
2024/01/11 01:58:34;;;;;;;;;;;;;;;-6.95;75.67;103188.53;5052648;28;19920;-70
2024/01/11 02:01:00;;;;;;;;;;;;;;;-7.00;75.82;103190.59;5018273;28;20260;-70
2024/01/11 02:03:27;;;;;;;;;;;;;;;-7.05;76.04;103186.75;5020576;28;19932;-70
2024/01/11 02:05:53;;;;;;;;;;;;;;;-7.04;76.37;103193.63;5046834;28;20016;-70
2024/01/11 02:08:20;;;;;;;;;;;;;;;-7.09;76.27;103178.66;5029010;28;19921;-70
2024/01/11 02:10:45;;;;;;;;;;;;;;;-7.13;76.71;103172.34;5040838;28;19925;-70
2024/01/11 02:13:12;;;;;;;;;;;;;;;-7.15;77.47;103173.84;5022996;28;19921;-70
2024/01/11 02:15:37;;;;;;;;;;;;;;;-7.19;77.17;103171.75;5010848;28;19956;-70
2024/01/11 02:18:03;;;;;;;;;;;;;;;-7.22;77.97;103168.91;5012531;28;20369;-70
2024/01/11 02:20:28;;;;;;;;;;;;;;;-7.25;78.21;103174.59;5006301;28;19925;-70
2024/01/11 02:22:56;;;;;;;;;;;;;;;-7.29;78.03;103184.34;5012384;28;19932;-70
2024/01/11 02:25:21;;;;;;;;;;;;;;;-7.36;77.76;103193.03;5032575;28;19916;-70
2024/01/11 02:27:49;;;;;;;;;;;;;;;-7.42;78.07;103197.50;5007853;28;19921;-70
2024/01/11 02:30:18;;;;;;;;;;;;;;;-7.50;77.80;103204.38;5028063;28;19943;-70
2024/01/11 02:32:47;;;;;;;;;;;;;;;-7.53;77.76;103193.88;5025191;28;20087;-70
2024/01/11 02:35:14;;;;;;;;;;;;;;;-7.55;77.80;103195.41;5030990;28;19916;-70
2024/01/11 02:37:39;;;;;;;;;;;;;;;-7.60;78.20;103191.47;5034474;28;19954;-70
2024/01/11 02:40:07;;;;;;;;;;;;;;;-7.62;77.49;103188.78;5035503;28;20303;-70
2024/01/11 02:42:33;;;;;;;;;;;;;;;-7.65;77.42;103185.94;5032955;28;19920;-70
2024/01/11 02:44:58;;;;;;;;;;;;;;;-7.63;77.73;103188.63;5016505;28;19928;-70
2024/01/11 02:47:24;;;;;;;;;;;;;;;-7.67;77.78;103190.88;5031210;28;19936;-70
2024/01/11 02:49:49;;;;;;;;;;;;;;;-7.69;77.63;103182.16;5031248;28;20284;-70
2024/01/11 02:52:15;;;;;;;;;;;;;;;-7.68;77.89;103186.53;5013250;28;19928;-70
2024/01/11 02:54:40;;;;;;;;;;;;;;;-7.69;77.49;103184.72;5031496;28;19925;-70
2024/01/11 02:57:05;;;;;;;;;;;;;;;-7.73;77.68;103190.28;5014746;28;19925;-70
2024/01/11 02:59:31;;;;;;;;;;;;;;;-7.73;77.07;103191.91;5012212;28;19928;-70
2024/01/11 03:01:56;;;;;;;;;;;;;;;-7.70;77.83;103200.75;5016507;28;19921;-70
2024/01/11 03:04:22;;;;;;;;;;;;;;;-7.71;77.70;103183.66;5021399;28;19995;-70
2024/01/11 03:06:49;;;;;;;;;;;;;;;-7.68;77.48;103194.16;5030320;28;19927;-70
2024/01/11 03:09:14;;;;;;;;;;;;;;;-7.69;76.87;103187.25;5025966;28;19928;-70
2024/01/11 03:11:40;;;;;;;;;;;;;;;-7.69;78.03;103188.91;5018161;28;19924;-70
2024/01/11 03:14:06;;;;;;;;;;;;;;;-7.72;78.05;103186.97;5026250;28;19947;-70
2024/01/11 03:16:31;;;;;;;;;;;;;;;-7.74;77.67;103185.91;5047294;28;20015;-70
2024/01/11 03:18:57;;;;;;;;;;;;;;;-7.73;77.08;103182.63;5037963;28;19921;-70
2024/01/11 03:21:22;;;;;;;;;;;;;;;-7.72;77.90;103188.63;5026918;28;19925;-70
2024/01/11 03:23:47;;;;;;;;;;;;;;;-7.74;78.08;103185.00;5032641;28;19979;-70
2024/01/11 03:26:16;;;;;;;;;;;;;;;-7.75;78.21;103186.66;5029202;28;19925;-70
2024/01/11 03:28:42;;;;;;;;;;;;;;;-7.75;77.00;103190.84;5042025;28;20003;-70
2024/01/11 03:31:08;;;;;;;;;;;;;;;-7.76;77.65;103183.97;5022254;28;20528;-70
2024/01/11 03:33:35;;;;;;;;;;;;;;;-7.78;77.19;103181.25;5042605;28;19920;-70
2024/01/11 03:36:06;;;;;;;;;;;;;;;-7.77;77.48;103182.16;5026918;28;19995;-70
2024/01/11 03:38:31;;;;;;;;;;;;;;;-7.82;78.17;103174.06;5049471;28;19924;-70
2024/01/11 03:40:57;;;;;;;;;;;;;;;-7.82;78.67;103179.16;5028306;28;20296;-70
2024/01/11 03:43:22;;;;;;;;;;;;;;;-7.87;78.20;103177.81;5049818;28;20400;-70
2024/01/11 03:45:47;;;;;;;;;;;;;;;-7.89;78.29;103184.38;5020670;28;19921;-70
2024/01/11 03:48:15;;;;;;;;;;;;;;;-7.89;78.10;103176.72;5049114;28;19924;-70
2024/01/11 03:50:41;;;;;;;;;;;;;;;-7.91;78.11;103184.22;5046529;28;20292;-70
2024/01/11 03:53:07;;;;;;;;;;;;;;;-7.91;78.10;103185.88;5048469;28;19923;-70
2024/01/11 03:55:33;;;;;;;;;;;;;;;-7.95;77.56;103187.19;5041684;28;19917;-70
2024/01/11 03:57:58;;;;;;;;;;;;;;;-7.98;77.92;103186.88;5049473;28;19916;-70
2024/01/11 04:00:23;;;;;;;;;;;;;;;-8.01;78.18;103177.28;5023930;28;19937;-70
2024/01/11 04:02:49;;;;;;;;;;;;;;;-8.02;78.26;103175.47;5029618;28;19925;-70
2024/01/11 04:05:15;;;;;;;;;;;;;;;-8.05;78.19;103187.91;5026903;28;19932;-70
2024/01/11 04:07:40;;;;;;;;;;;;;;;-8.04;78.56;103191.38;5019612;28;20015;-70
2024/01/11 04:10:06;;;;;;;;;;;;;;;-8.03;77.99;103209.34;5039523;28;20003;-70
2024/01/11 04:12:31;;;;;;;;;;;;;;;-8.01;77.31;103218.00;5027608;28;20024;-70
2024/01/11 04:14:57;;;;;;;;;;;;;;;-7.97;77.70;103215.78;5029199;28;19921;-69
2024/01/11 04:17:25;;;;;;;;;;;;;;;-7.95;78.05;103210.09;5023740;28;19928;-69
2024/01/11 04:19:50;;;;;;;;;;;;;;;-7.93;77.32;103210.25;5044411;28;20404;-70
2024/01/11 04:22:15;;;;;;;;;;;;;;;-7.90;77.57;103215.66;5026175;28;19922;-69
2024/01/11 04:24:44;;;;;;;;;;;;;;;-7.91;78.16;103208.78;5046390;28;19917;-70
2024/01/11 04:27:09;;;;;;;;;;;;;;;-7.91;77.83;103208.78;5043392;28;19916;-69
2024/01/11 04:29:35;;;;;;;;;;;;;;;-7.92;77.88;103217.16;5025289;28;19936;-70
2024/01/11 04:32:01;;;;;;;;;;;;;;;-7.92;78.33;103228.22;5028048;28;19975;-69
2024/01/11 04:34:26;;;;;;;;;;;;;;;-7.91;77.51;103231.69;5028500;28;19922;-69
2024/01/11 04:36:52;;;;;;;;;;;;;;;-7.90;77.45;103223.28;5048578;28;19924;-69
2024/01/11 04:39:17;;;;;;;;;;;;;;;-7.86;77.96;103227.94;5027693;28;20012;-69
2024/01/11 04:41:42;;;;;;;;;;;;;;;-7.88;78.51;103215.06;5040028;28;19928;-70
2024/01/11 04:44:08;;;;;;;;;;;;;;;-7.88;78.47;103221.81;5032161;28;19928;-70
2024/01/11 04:46:33;;;;;;;;;;;;;;;-7.94;78.90;103219.53;5046086;28;19979;-70
2024/01/11 04:48:58;;;;;;;;;;;;;;;-7.96;78.64;103230.31;5051130;28;19917;-70
2024/01/11 04:51:24;;;;;;;;;;;;;;;-8.02;78.98;103228.03;5027650;28;20020;-70
2024/01/11 04:53:51;;;;;;;;;;;;;;;-8.02;79.51;103228.94;5029128;28;20004;-70
2024/01/11 04:56:17;;;;;;;;;;;;;;;-7.99;79.29;103235.09;5022577;28;19928;-70
2024/01/11 04:58:43;;;;;;;;;;;;;;;-8.06;78.66;103223.38;5022533;28;19921;-70
2024/01/11 05:01:12;;;;;;;;;;;;;;;-8.07;78.15;103235.22;5043745;28;20292;-70
2024/01/11 05:03:38;;;;;;;;;;;;;;;-8.09;78.66;103234.13;5042217;28;20261;-70
2024/01/11 05:06:03;;;;;;;;;;;;;;;-8.11;78.72;103237.28;5040123;28;19928;-70
2024/01/11 05:08:29;;;;;;;;;;;;;;;-8.13;78.96;103242.22;5047788;28;19927;-69
2024/01/11 05:10:54;;;;;;;;;;;;;;;-8.15;79.17;103243.69;5043330;28;19917;-70
2024/01/11 05:13:19;;;;;;;;;;;;;;;-8.15;79.02;103242.81;5015616;28;19925;-70
2024/01/11 05:15:45;;;;;;;;;;;;;;;-8.18;79.67;103243.38;5016354;28;19959;-70
2024/01/11 05:18:10;;;;;;;;;;;;;;;-8.14;79.12;103254.78;5032232;28;19959;-70
2024/01/11 05:20:36;;;;;;;;;;;;;;;-8.14;79.21;103244.63;5027489;28;19925;-70
2024/01/11 05:23:01;;;;;;;;;;;;;;;-8.12;78.42;103248.19;5051954;28;20019;-70
2024/01/11 05:25:27;;;;;;;;;;;;;;;-8.15;79.08;103246.25;5015298;28;20373;-69
2024/01/11 05:27:52;;;;;;;;;;;;;;;-8.16;79.80;103249.50;5031138;28;19972;-70
2024/01/11 05:30:18;;;;;;;;;;;;;;;-8.18;79.90;103257.00;5015124;28;19921;-69
2024/01/11 06:01:09;;;;;;;;;;;;;;;-8.26;80.29;103272.22;4751503;22;21152;-70
2024/01/11 06:03:35;;;;;;;;;;;;;;;-8.27;79.54;103275.53;5045163;28;19940;-70
2024/01/11 06:06:01;;;;;;;;;;;;;;;-8.27;80.45;103285.69;5047978;28;20661;-70
2024/01/11 06:08:27;;;;;;;;;;;;;;;-8.27;79.94;103295.88;5043773;28;20380;-70
2024/01/11 06:10:52;;;;;;;;;;;;;;;-8.30;80.59;103283.72;5028309;28;19971;-70
2024/01/11 06:13:18;;;;;;;;;;;;;;;-8.30;80.41;103278.63;5053361;28;19924;-70
2024/01/11 06:15:44;;;;;;;;;;;;;;;-8.31;80.35;103276.81;5050818;28;20007;-70
2024/01/11 06:18:09;;;;;;;;;;;;;;;-8.33;80.94;103269.78;5054700;28;20341;-70
2024/01/11 06:20:34;;;;;;;;;;;;;;;-8.36;81.26;103280.53;5071772;28;19936;-69
2024/01/11 06:23:01;;;;;;;;;;;;;;;-8.42;80.98;103288.44;5071603;28;19932;-70
2024/01/11 06:25:26;;;;;;;;;;;;;;;-8.45;81.80;103288.13;5049323;28;20296;-69
2024/01/11 06:27:51;;;;;;;;;;;;;;;-8.50;81.89;103284.22;5053117;28;19928;-70
2024/01/11 06:30:17;;;;;;;;;;;;;;;-8.50;81.47;103294.41;5053336;28;19920;-70
2024/01/11 06:32:42;;;;;;;;;;;;;;;-8.50;81.83;103273.13;5052178;28;19921;-69
2024/01/11 06:35:08;;;;;;;;;;;;;;;-8.51;82.74;103278.97;5048154;28;19920;-69
2024/01/11 06:37:33;;;;;;;;;;;;;;;-8.53;82.57;103294.06;5069760;28;19920;-70
2024/01/11 06:39:58;;;;;;;;;;;;;;;-8.57;82.84;103291.94;5049420;28;19978;-70
2024/01/11 06:42:24;;;;;;;;;;;;;;;-8.59;83.32;103306.13;5072100;28;19977;-71
2024/01/11 06:44:49;;;;;;;;;;;;;;;-8.66;82.73;103307.13;5071801;28;20011;-71
2024/01/11 06:47:16;;;;;;;;;;;;;;;-8.71;83.42;103301.53;5042315;28;19924;-71
2024/01/11 06:49:41;;;;;;;;;;;;;;;-8.76;83.54;103305.25;5042687;28;19928;-71
2024/01/11 06:52:07;;;;;;;;;;;;;;;-8.78;83.09;103314.34;5054860;28;19917;-71
2024/01/11 06:54:32;;;;;;;;;;;;;;;-8.80;83.38;103312.41;5048385;28;21112;-71
2024/01/11 06:56:58;;;;;;;;;;;;;;;-8.82;82.52;103312.25;5045447;28;19920;-71
2024/01/11 06:59:23;;;;;;;;;;;;;;;-8.85;82.63;103308.44;5072464;28;20284;-71
2024/01/11 07:01:49;;;;;;;;;;;;;;;-8.88;83.86;103315.03;5071892;28;19920;-71
2024/01/11 07:04:14;;;;;;;;;;;;;;;-8.89;83.65;103322.50;5055248;28;20350;-71
2024/01/11 07:06:39;;;;;;;;;;;;;;;-8.88;82.61;103330.28;5071510;28;19924;-71
2024/01/11 07:09:05;;;;;;;;;;;;;;;-8.88;82.56;103349.69;5054693;28;20312;-71
2024/01/11 07:11:32;;;;;;;;;;;;;;;-8.89;83.46;103353.88;5045986;28;19925;-71
2024/01/11 07:13:57;;;;;;;;;;;;;;;-8.89;82.86;103352.97;5049673;28;20351;-71
2024/01/11 07:16:22;;;;;;;;;;;;;;;-8.90;83.67;103341.00;5057881;28;20332;-71
2024/01/11 07:18:47;;;;;;;;;;;;;;;-8.89;83.07;103340.28;5071062;28;20340;-71
2024/01/11 07:21:13;;;;;;;;;;;;;;;-8.89;82.23;103337.75;5054150;28;19920;-71
2024/01/11 07:23:38;;;;;;;;;;;;;;;-8.85;82.45;103352.53;5055165;28;19916;-71
2024/01/11 07:26:04;;;;;;;;;;;;;;;-8.83;83.52;103357.78;5054120;28;19916;-71
2024/01/11 07:28:29;;;;;;;;;;;;;;;-8.81;82.92;103347.06;5071511;28;20353;-71
2024/01/11 07:30:54;;;;;;;;;;;;;;;-8.78;81.54;103352.47;5054291;28;19990;-71
2024/01/11 07:33:20;;;;;;;;;;;;;;;-8.75;82.52;103337.56;5072869;28;19971;-71
2024/01/11 07:35:46;;;;;;;;;;;;;;;-8.72;81.74;103348.06;5036733;28;19920;-71
2024/01/11 07:38:11;;;;;;;;;;;;;;;-8.67;81.16;103335.84;5051317;28;19917;-71
2024/01/11 07:40:36;;;;;;;;;;;;;;;-8.68;82.13;103339.09;5050863;28;19924;-71
2024/01/11 07:43:03;;;;;;;;;;;;;;;-8.63;80.90;103347.22;5033588;28;19917;-71
2024/01/11 07:45:31;;;;;;;;;;;;;;;-8.64;83.11;103353.94;5034643;28;19924;-71
2024/01/11 07:47:56;;;;;;;;;;;;;;;-8.61;83.03;103351.72;5049128;28;19950;-71
2024/01/11 07:50:22;;;;;;;;;;;;;;;-8.57;82.61;103358.94;5070998;28;19928;-71
2024/01/11 07:52:47;;;;;;;;;;;;;;;-8.53;82.81;103352.56;5046949;28;19921;-71
2024/01/11 07:55:12;;;;;;;;;;;;;;;-8.47;82.09;103347.22;5034080;28;19921;-71
2024/01/11 07:57:39;;;;;;;;;;;;;;;-8.43;82.37;103337.50;5033919;28;20391;-71
2024/01/11 08:00:06;;;;;;;;;;;;;;;-8.38;80.99;103321.06;5068636;28;19924;-71
2024/01/11 08:02:32;;;;;;;;;;;;;;;-8.32;81.11;103327.53;5043644;28;20291;-71
2024/01/11 08:04:58;;;;;;;;;;;;;;;-8.26;82.86;103315.44;5070862;28;19919;-71
2024/01/11 08:07:23;;;;;;;;;;;;;;;-8.21;81.77;103310.09;5045186;28;19921;-71
2024/01/11 08:09:49;;;;;;;;;;;;;;;-8.13;82.19;103315.09;5039100;28;19947;-71
2024/01/11 08:12:14;;;;;;;;;;;;;;;-8.06;82.60;103321.00;5051656;28;20480;-71
2024/01/11 08:14:41;;;;;;;;;;;;;;;-7.99;82.92;103316.53;5050662;28;19925;-71
2024/01/11 08:17:07;;;;;;;;;;;;;;;-7.94;82.96;103312.78;5046561;28;20015;-71
2024/01/11 08:19:32;;;;;;;;;;;;;;;-7.85;82.18;103317.19;5050606;28;20011;-71
2024/01/11 08:21:58;;;;;;;;;;;;;;;-7.78;82.81;103316.19;5050177;28;20016;-71
2024/01/11 08:24:25;;;;;;;;;;;;;;;-7.70;82.98;103319.50;5070242;28;19991;-71
2024/01/11 08:26:51;;;;;;;;;;;;;;;-7.62;82.52;103322.84;5053102;28;19923;-71
2024/01/11 08:29:18;;;;;;;;;;;;;;;-7.54;82.62;103329.59;5053886;28;19916;-71
2024/01/11 08:31:44;;;;;;;;;;;;;;;-7.45;82.52;103330.56;5053959;28;20261;-71
2024/01/11 08:34:10;;;;;;;;;;;;;;;-7.34;83.20;103321.44;5070698;28;19927;-71
2024/01/11 08:36:35;;;;;;;;;;;;;;;-7.28;83.30;103322.06;5050143;28;19943;-71
2024/01/11 08:39:08;;;;;;;;;;;;;;;-7.20;83.06;103312.63;5052577;28;20486;-71
2024/01/11 08:41:33;;;;;;;;;;;;;;;-7.10;81.31;103314.47;5056777;28;19930;-71
2024/01/11 08:43:59;;;;;;;;;;;;;;;-7.00;81.32;103318.06;5050965;28;20074;-71
2024/01/11 08:46:25;;;;;;;;;;;;;;;-6.69;80.41;103328.75;5070203;28;19927;-71
2024/01/11 08:48:51;;;;;;;;;;;;;;;-5.23;77.71;103330.59;5053858;28;20065;-72
2024/01/11 08:51:18;;;;;;;;;;;;;;;-3.06;71.89;103325.75;5049768;28;20003;-71
2024/01/11 08:53:44;;;;;;;;;;;;;;;-1.07;65.75;103331.22;5048595;28;19917;-72
2024/01/11 08:56:09;;;;;;;;;;;;;;;0.68;67.85;103315.41;5072340;28;20074;-72
2024/01/11 08:58:34;;;;;;;;;;;;;;;2.17;61.21;103313.03;5074133;28;19927;-72
2024/01/11 09:01:00;;;;;;;;;;;;;;;3.25;55.92;103320.41;5056571;28;19929;-72
2024/01/11 09:03:25;;;;;;;;;;;;;;;4.40;56.31;103318.97;5057497;28;19920;-72
2024/01/11 09:05:50;;;;;;;;;;;;;;;4.83;56.25;103329.91;5053218;28;19928;-72
2024/01/11 09:08:15;;;;;;;;;;;;;;;3.67;54.46;103327.97;5055842;28;19928;-72
2024/01/11 09:10:41;;;;;;;;;;;;;;;2.47;59.39;103331.25;5056507;28;19920;-72
2024/01/11 09:13:07;;;;;;;;;;;;;;;1.50;60.20;103341.53;5073391;28;19916;-72
2024/01/11 09:15:33;;;;;;;;;;;;;;;0.64;62.91;103349.53;5055953;28;19921;-72
2024/01/11 09:18:02;;;;;;;;;;;;;;;-0.06;64.73;103352.41;5073334;28;19916;-72
2024/01/11 09:20:28;;;;;;;;;;;;;;;-0.75;66.51;103357.63;5056634;28;19924;-72
2024/01/11 09:22:53;;;;;;;;;;;;;;;-1.22;68.33;103368.69;5052240;28;19924;-72
2024/01/11 09:25:18;;;;;;;;;;;;;;;-1.48;70.21;103370.13;5056770;28;19951;-72
2024/01/11 09:27:44;;;;;;;;;;;;;;;-1.59;70.44;103370.94;5050690;28;19948;-72
2024/01/11 09:30:11;;;;;;;;;;;;;;;-1.67;71.15;103377.16;5066879;28;19967;-72
2024/01/11 09:32:37;;;;;;;;;;;;;;;-1.67;72.39;103372.00;5064340;28;19929;-73
2024/01/11 09:35:04;;;;;;;;;;;;;;;-1.69;72.50;103374.47;5049645;28;20372;-73
2024/01/11 09:37:30;;;;;;;;;;;;;;;-1.43;72.79;103379.06;5061380;28;19921;-73
2024/01/11 09:39:56;;;;;;;;;;;;;;;0.85;69.95;103378.53;5036058;28;19920;-75
2024/01/11 09:42:22;;;;;;;;;;;;;;;3.45;63.97;103383.78;5044722;28;19927;-74
2024/01/11 09:44:47;;;;;;;;;;;;;;;5.62;58.32;103390.19;5041481;28;20023;-73
2024/01/11 09:47:15;;;;;;;;;;;;;;;7.50;57.51;103377.94;5046869;28;20023;-74
2024/01/11 09:49:41;;;;;;;;;;;;;;;9.02;49.58;103382.91;5047384;28;19921;-71
2024/01/11 09:52:09;;;;;;;;;;;;;;;10.12;49.65;103377.78;5049561;28;19963;-72
2024/01/11 09:54:35;;;;;;;;;;;;;;;11.19;49.19;103394.84;5056252;28;19930;-72
2024/01/11 09:57:03;;;;;;;;;;;;;;;12.02;47.20;103381.16;5017802;28;23185;-70
2024/01/11 09:59:29;;;;;;;;;;;;;;;12.94;44.82;103365.53;5053815;28;20332;-71
2024/01/11 10:01:54;;;;;;;;;;;;;;;13.44;42.36;103378.72;5054292;28;20019;-71
2024/01/11 10:04:20;;;;;;;;;;;;;;;14.10;44.27;103370.09;5051231;28;20006;-73
2024/01/11 10:06:45;;;;;;;;;;;;;;;14.69;40.74;103383.16;5052281;28;20360;-74
2024/01/11 10:09:11;;;;;;;;;;;;;;;15.08;40.91;103394.16;5046749;28;20339;-73
2024/01/11 10:11:38;;;;;;;;;;;;;;;15.65;40.75;103389.38;5044864;28;20356;-73
2024/01/11 10:14:05;;;;;;;;;;;;;;;16.14;39.44;103388.84;5053447;28;19952;-74
2024/01/11 10:16:30;;;;;;;;;;;;;;;16.52;38.99;103390.81;5054724;28;19999;-74
2024/01/11 10:18:57;;;;;;;;;;;;;;;16.66;41.08;103398.78;5055655;28;19926;-74
2024/01/11 10:21:26;;;;;;;;;;;;;;;17.02;38.01;103401.56;5079728;28;19932;-74
2024/01/11 10:23:51;;;;;;;;;;;;;;;17.16;38.08;103407.78;5072554;28;20018;-76
2024/01/11 10:26:17;;;;;;;;;;;;;;;17.08;37.05;103412.16;5073021;28;19999;-75
2024/01/11 10:28:46;;;;;;;;;;;;;;;16.78;37.68;103414.72;5073060;28;19913;-76
2024/01/11 10:31:12;;;;;;;;;;;;;;;15.63;40.42;103414.03;5053757;28;19960;-76
2024/01/11 10:33:37;;;;;;;;;;;;;;;15.61;44.31;103408.72;5053351;28;19975;-74
2024/01/11 10:36:03;;;;;;;;;;;;;;;16.37;38.16;103411.91;5044313;28;20578;-75
2024/01/11 10:38:30;;;;;;;;;;;;;;;16.89;37.93;103405.94;5045535;28;19920;-75
2024/01/11 10:40:59;;;;;;;;;;;;;;;17.06;41.11;103413.94;5056158;28;19920;-76
2024/01/11 10:43:25;;;;;;;;;;;;;;;17.50;39.65;103405.16;5056495;28;19967;-76
2024/01/11 10:45:53;;;;;;;;;;;;;;;17.90;39.57;103399.88;5054542;28;19921;-75
2024/01/11 10:48:20;;;;;;;;;;;;;;;17.87;37.02;103405.16;5072143;28;19921;-74
2024/01/11 10:50:49;;;;;;;;;;;;;;;17.97;36.43;103398.97;5070568;28;19916;-74
2024/01/11 10:53:14;;;;;;;;;;;;;;;17.99;37.60;103397.19;5069270;28;19951;-76
2024/01/11 10:55:42;;;;;;;;;;;;;;;18.11;36.06;103387.41;5072461;28;19963;-75
2024/01/11 10:58:07;;;;;;;;;;;;;;;18.48;33.37;103396.13;5069421;28;21055;-75
2024/01/11 11:00:35;;;;;;;;;;;;;;;18.46;35.74;103394.38;5064856;28;20400;-76
2024/01/11 11:03:00;;;;;;;;;;;;;;;18.03;37.07;103397.16;5069540;28;19931;-72
2024/01/11 11:05:28;;;;;;;;;;;;;;;17.88;32.77;103396.28;5071903;28;20447;-75
2024/01/11 11:07:54;;;;;;;;;;;;;;;17.76;36.68;103388.34;5054277;28;20372;-72
2024/01/11 11:10:19;;;;;;;;;;;;;;;18.17;35.38;103395.34;5050747;28;19931;-70
2024/01/11 11:12:47;;;;;;;;;;;;;;;18.02;35.86;103404.25;5054337;28;19924;-71
2024/01/11 11:15:13;;;;;;;;;;;;;;;17.79;35.33;103406.91;5049818;28;19920;-70
2024/01/11 11:17:39;;;;;;;;;;;;;;;17.03;35.53;103420.13;5051441;28;19923;-71
2024/01/11 11:20:07;;;;;;;;;;;;;;;16.43;36.51;103418.13;5035956;28;19921;-71
2024/01/11 11:22:36;;;;;;;;;;;;;;;16.74;33.98;103406.78;5054912;28;19920;-70
2024/01/11 11:25:25;;;;;;;;;;;;;;;17.52;32.73;103418.41;5051154;28;19917;-71
2024/01/11 11:27:50;;;;;;;;;;;;;;;18.20;35.33;103413.03;5058100;28;20304;-71
2024/01/11 11:30:19;;;;;;;;;;;;;;;18.81;32.64;103415.44;5054237;28;20015;-72
2024/01/11 11:32:45;;;;;;;;;;;;;;;18.99;32.44;103406.53;5071195;28;19921;-71
2024/01/11 11:35:11;;;;;;;;;;;;;;;18.20;36.92;103403.31;5071661;28;19923;-71
2024/01/11 11:37:37;;;;;;;;;;;;;;;17.70;35.02;103404.25;5054217;28;19931;-72
2024/01/11 11:40:03;;;;;;;;;;;;;;;17.60;35.42;103409.56;5070594;28;19916;-72
2024/01/11 11:42:30;;;;;;;;;;;;;;;18.00;33.65;103425.47;5061328;28;19939;-71
2024/01/11 11:44:57;;;;;;;;;;;;;;;18.07;35.16;103423.69;5067894;28;20011;-70
2024/01/11 11:47:23;;;;;;;;;;;;;;;17.81;35.52;103415.75;5051120;28;19983;-72
2024/01/11 11:50:00;;;;;;;;;;;;;;;17.62;37.01;103422.84;5049459;28;19920;-75
2024/01/11 11:52:26;;;;;;;;;;;;;;;17.37;37.37;103419.28;5070624;28;20410;-70
2024/01/11 11:54:54;;;;;;;;;;;;;;;17.05;37.99;103436.00;5053566;28;19916;-74
2024/01/11 11:57:20;;;;;;;;;;;;;;;16.51;33.47;103425.22;5071970;28;19916;-71
2024/01/11 11:59:46;;;;;;;;;;;;;;;15.90;36.83;103424.88;5057352;28;20402;-77
2024/01/11 12:02:16;;;;;;;;;;;;;;;15.23;36.00;103422.50;5053812;28;19924;-75
2024/01/11 12:04:46;;;;;;;;;;;;;;;15.56;36.10;103418.41;5055424;28;19913;-72
2024/01/11 12:07:11;;;;;;;;;;;;;;;16.32;35.15;103414.53;5070029;28;20013;-77
2024/01/11 12:09:37;;;;;;;;;;;;;;;17.01;33.13;103407.75;5051112;28;19975;-74
2024/01/11 12:12:03;;;;;;;;;;;;;;;17.39;31.71;103398.97;5047473;28;20319;-70
2024/01/11 12:14:29;;;;;;;;;;;;;;;17.52;33.54;103394.56;5054715;28;19920;-75
2024/01/11 12:16:57;;;;;;;;;;;;;;;17.84;34.28;103382.16;5070365;28;19920;-75
2024/01/11 12:19:23;;;;;;;;;;;;;;;18.03;32.31;103389.19;5054301;28;20330;-70
2024/01/11 12:21:49;;;;;;;;;;;;;;;18.07;30.84;103391.84;5053546;28;19924;-73
2024/01/11 12:24:17;;;;;;;;;;;;;;;17.63;31.32;103384.84;5053427;28;19920;-70
2024/01/11 12:26:43;;;;;;;;;;;;;;;17.50;33.31;103389.25;5053023;28;19916;-74
2024/01/11 12:29:09;;;;;;;;;;;;;;;17.70;30.28;103386.59;5070402;28;20354;-75
2024/01/11 12:31:35;;;;;;;;;;;;;;;17.52;32.21;103387.47;5037556;28;19921;-71
2024/01/11 12:34:03;;;;;;;;;;;;;;;16.78;31.25;103384.72;5036403;28;19920;-74
2024/01/11 12:36:29;;;;;;;;;;;;;;;15.16;34.60;103389.84;5035295;28;20414;-75
2024/01/11 12:38:55;;;;;;;;;;;;;;;13.11;36.03;103379.88;5048035;28;19920;-70
2024/01/11 12:41:23;;;;;;;;;;;;;;;11.37;37.65;103381.31;5052930;28;19924;-76
2024/01/11 12:43:48;;;;;;;;;;;;;;;10.60;37.67;103385.34;5070793;28;19913;-70
2024/01/11 12:46:14;;;;;;;;;;;;;;;10.22;39.55;103385.06;5053643;28;19924;-70
2024/01/11 12:48:39;;;;;;;;;;;;;;;10.29;36.48;103391.41;5048483;28;19929;-74
2024/01/11 12:51:05;;;;;;;;;;;;;;;10.63;38.08;103388.09;5050088;28;19969;-75
2024/01/11 12:53:31;;;;;;;;;;;;;;;11.08;37.45;103389.31;5034592;28;20380;-74
2024/01/11 12:56:08;;;;;;;;;;;;;;;11.24;36.17;103380.13;5053059;28;19917;-75
2024/01/11 12:58:33;;;;;;;;;;;;;;;12.07;37.09;103382.16;5070655;28;19936;-74
2024/01/11 13:00:59;;;;;;;;;;;;;;;13.00;35.45;103386.69;5063265;28;19925;-74